Time;durP1;ratioP1;P1;durP2;ratioP2;P2;SDS_P1;SDS_P2;PMS_P1;PMS_P2;Temp;Humidity;BMP_temperature;BMP_pressure;BME280_temperature;BME280_humidity;BME280_pressure;Samples;Min_cycle;Max_cycle;Signal;HPM_P1;HPM_P2
2022/05/13 00:02:15;;;;;;;5.25;4.75;;;16.20;99.90;;;;;;4947077;28;20045;-64
2022/05/13 00:04:42;;;;;;;12.82;5.35;;;16.20;99.90;;;;;;4937602;28;20663;-64
2022/05/13 00:07:09;;;;;;;7.05;5.43;;;16.20;99.90;;;;;;4966221;28;21043;-64
2022/05/13 00:12:24;;;;;;;10.68;5.57;;;16.20;99.90;;;;;;4972329;28;20060;-64
2022/05/13 00:14:53;;;;;;;10.68;5.00;;;16.10;99.90;;;;;;4969952;28;20566;-64
2022/05/13 00:17:22;;;;;;;7.70;4.65;;;16.10;99.90;;;;;;4952910;28;20052;-64
2022/05/13 00:19:49;;;;;;;10.20;5.13;;;16.10;99.90;;;;;;4951189;28;20204;-64
2022/05/13 00:22:18;;;;;;;9.65;5.47;;;16.20;99.90;;;;;;4949675;28;20050;-64
2022/05/13 00:24:53;;;;;;;11.63;5.72;;;16.20;99.90;;;;;;4950039;28;20058;-64
2022/05/13 00:27:21;;;;;;;6.80;4.95;;;16.10;99.90;;;;;;4932712;28;20552;-64
2022/05/13 00:29:49;;;;;;;14.93;5.07;;;16.20;99.90;;;;;;4951042;28;20092;-64
2022/05/13 00:32:17;;;;;;;9.55;4.55;;;16.10;99.90;;;;;;4955596;28;20208;-64
2022/05/13 00:34:44;;;;;;;6.57;5.00;;;16.10;99.90;;;;;;4932474;28;20042;-63
2022/05/13 00:37:11;;;;;;;9.05;5.28;;;16.10;99.90;;;;;;4950319;28;20056;-64
2022/05/13 00:39:38;;;;;;;5.60;4.78;;;16.10;99.90;;;;;;4938141;28;20030;-64
2022/05/13 00:42:08;;;;;;;18.75;5.60;;;16.10;99.90;;;;;;4945566;28;20042;-64
2022/05/13 00:44:35;;;;;;;7.82;5.10;;;16.20;99.90;;;;;;4965295;28;20155;-64
2022/05/13 00:47:02;;;;;;;9.10;4.70;;;16.20;99.90;;;;;;4951900;28;20337;-64
2022/05/13 00:49:31;;;;;;;10.57;4.88;;;16.20;99.90;;;;;;4949184;28;20783;-64
2022/05/13 00:52:00;;;;;;;5.10;4.15;;;16.10;99.90;;;;;;4967229;28;20433;-64
2022/05/13 00:54:29;;;;;;;6.07;4.63;;;16.10;99.90;;;;;;4965527;28;20042;-64
2022/05/13 00:56:58;;;;;;;5.43;4.45;;;16.10;99.90;;;;;;4950030;28;20625;-64
2022/05/13 00:59:28;;;;;;;8.00;4.88;;;16.10;99.90;;;;;;4949713;28;20658;-64
2022/05/13 01:01:55;;;;;;;7.18;5.60;;;16.10;99.90;;;;;;4950281;28;20042;-64
2022/05/13 01:04:24;;;;;;;9.27;5.53;;;16.00;99.90;;;;;;4965853;28;20046;-63
2022/05/13 01:06:55;;;;;;;7.32;5.25;;;16.00;99.90;;;;;;4958556;28;20371;-64
2022/05/13 01:09:26;;;;;;;7.28;4.72;;;16.00;99.90;;;;;;4951136;28;20761;-64
2022/05/13 01:11:57;;;;;;;6.00;5.40;;;15.90;99.90;;;;;;4950880;28;20598;-63
2022/05/13 01:14:30;;;;;;;7.55;5.10;;;15.90;99.90;;;;;;4963185;28;20046;-64
2022/05/13 01:20:08;;;;;;;6.85;4.55;;;15.90;99.90;;;;;;4950411;28;20068;-63
2022/05/13 01:22:46;;;;;;;7.93;5.30;;;15.80;99.90;;;;;;4949337;28;20113;-64
2022/05/13 01:25:17;;;;;;;9.88;6.03;;;15.80;99.90;;;;;;4948103;28;20311;-63
2022/05/13 01:27:47;;;;;;;5.57;4.82;;;15.80;99.90;;;;;;4951308;28;20136;-64
2022/05/13 01:30:22;;;;;;;8.40;5.63;;;15.70;99.90;;;;;;4952279;28;20049;-64
2022/05/13 01:32:50;;;;;;;14.77;5.40;;;15.70;99.90;;;;;;4950947;28;20373;-63
2022/05/13 01:35:17;;;;;;;12.30;6.00;;;15.60;99.90;;;;;;4953634;28;20046;-64
2022/05/13 01:37:44;;;;;;;8.38;5.78;;;15.60;99.90;;;;;;4954686;28;20061;-65
2022/05/13 01:40:12;;;;;;;6.18;5.15;;;15.60;99.90;;;;;;4954180;28;20042;-63
2022/05/13 01:42:40;;;;;;;10.15;6.32;;;15.50;99.90;;;;;;4953030;28;20231;-63
2022/05/13 01:45:10;;;;;;;8.13;6.05;;;15.60;99.90;;;;;;4935593;28;20842;-64
2022/05/13 01:47:38;;;;;;;6.70;5.15;;;15.50;99.90;;;;;;4951870;28;20042;-64
2022/05/13 01:50:06;;;;;;;11.65;5.95;;;15.60;99.90;;;;;;4954259;28;20054;-63
2022/05/13 01:52:33;;;;;;;9.30;4.88;;;15.60;99.90;;;;;;4968567;28;20069;-63
2022/05/13 01:55:00;;;;;;;8.07;5.38;;;15.50;99.90;;;;;;4967735;28;20045;-63
2022/05/13 01:57:28;;;;;;;8.60;5.82;;;15.50;99.90;;;;;;4968244;28;20575;-64
2022/05/13 01:59:55;;;;;;;9.65;5.43;;;15.50;99.90;;;;;;4952799;28;20069;-64
2022/05/13 02:02:22;;;;;;;8.10;5.82;;;15.50;99.90;;;;;;4951980;28;20038;-64
2022/05/13 02:04:49;;;;;;;10.35;6.53;;;15.50;99.90;;;;;;4966005;28;20045;-64
2022/05/13 02:07:16;;;;;;;13.43;6.80;;;15.50;99.90;;;;;;4968415;28;20396;-64
2022/05/13 02:09:43;;;;;;;11.13;6.03;;;15.50;99.90;;;;;;4933522;28;20544;-64
2022/05/13 02:12:11;;;;;;;17.83;6.53;;;15.40;99.90;;;;;;4953214;28;20788;-64
2022/05/13 02:14:38;;;;;;;15.02;6.35;;;15.40;99.90;;;;;;4952729;28;20567;-63
2022/05/13 02:17:05;;;;;;;9.27;6.75;;;15.40;99.90;;;;;;4958368;28;20238;-63
2022/05/13 02:19:32;;;;;;;11.55;7.15;;;15.40;99.90;;;;;;4952419;28;20038;-64
2022/05/13 02:21:59;;;;;;;10.05;5.68;;;15.40;99.90;;;;;;4951502;28;20286;-63
2022/05/13 02:24:26;;;;;;;8.70;6.00;;;15.40;99.90;;;;;;4954447;28;20041;-64
2022/05/13 02:26:53;;;;;;;10.15;5.70;;;15.40;99.90;;;;;;4950890;28;20800;-64
2022/05/13 02:29:20;;;;;;;9.90;6.82;;;15.40;99.90;;;;;;4969284;28;20050;-64
2022/05/13 02:31:47;;;;;;;11.57;6.75;;;15.40;99.90;;;;;;4952299;28;20053;-64
2022/05/13 02:34:14;;;;;;;8.10;6.03;;;15.30;99.90;;;;;;4951580;28;20846;-64
2022/05/13 02:36:41;;;;;;;8.20;5.97;;;15.40;99.90;;;;;;4952530;28;20125;-63
2022/05/13 02:39:08;;;;;;;13.95;6.55;;;15.30;99.90;;;;;;4958623;28;20047;-63
2022/05/13 02:41:36;;;;;;;13.15;7.07;;;15.30;99.90;;;;;;4953040;28;20156;-63
2022/05/13 02:44:03;;;;;;;11.73;7.07;;;15.30;99.90;;;;;;4931724;28;20363;-63
2022/05/13 02:46:32;;;;;;;9.02;5.90;;;15.30;99.90;;;;;;4933304;28;20552;-63
2022/05/13 02:49:00;;;;;;;11.80;6.72;;;15.30;99.90;;;;;;4931709;28;20149;-63
2022/05/13 02:51:28;;;;;;;9.93;5.97;;;15.30;99.90;;;;;;4930466;28;20034;-63
2022/05/13 02:53:55;;;;;;;10.07;6.47;;;15.30;99.90;;;;;;4933858;28;20054;-63
2022/05/13 02:56:23;;;;;;;12.65;6.90;;;15.30;99.90;;;;;;4931979;28;20584;-64
2022/05/13 02:58:50;;;;;;;10.05;6.18;;;15.30;99.90;;;;;;4934388;28;20394;-63
2022/05/13 03:01:18;;;;;;;9.95;6.82;;;15.30;99.90;;;;;;4954884;28;20199;-63
2022/05/13 03:03:48;;;;;;;11.52;6.35;;;15.30;99.90;;;;;;4959274;28;20218;-63
2022/05/13 03:06:16;;;;;;;9.65;6.78;;;15.30;99.90;;;;;;4966918;28;20348;-63
2022/05/13 03:08:43;;;;;;;11.00;6.78;;;15.30;99.90;;;;;;4950339;28;20413;-64
2022/05/13 03:11:10;;;;;;;9.35;6.50;;;15.30;99.90;;;;;;4949657;28;20847;-63
2022/05/13 03:13:38;;;;;;;12.95;6.60;;;15.30;99.90;;;;;;4964483;28;20335;-63
2022/05/13 03:16:09;;;;;;;12.07;6.90;;;15.30;99.90;;;;;;4965102;28;20922;-63
2022/05/13 03:18:40;;;;;;;9.60;6.22;;;15.20;99.90;;;;;;4948263;28;20373;-63
2022/05/13 03:21:09;;;;;;;11.25;6.75;;;15.20;99.90;;;;;;4952867;28;20053;-63
2022/05/13 03:23:37;;;;;;;8.65;6.45;;;15.20;99.90;;;;;;4947357;28;20555;-64
2022/05/13 03:26:05;;;;;;;20.92;7.18;;;15.20;99.90;;;;;;4951873;28;20276;-63
2022/05/13 03:28:32;;;;;;;15.93;6.90;;;15.20;99.90;;;;;;4952686;28;20045;-64
2022/05/13 03:30:59;;;;;;;12.18;6.50;;;15.20;99.90;;;;;;4951456;28;21038;-64
2022/05/13 03:33:26;;;;;;;14.52;6.75;;;15.20;99.90;;;;;;4952890;28;20097;-63
2022/05/13 03:35:53;;;;;;;11.00;6.18;;;15.20;99.90;;;;;;4951591;28;20040;-63
2022/05/13 03:38:21;;;;;;;11.95;6.43;;;15.20;99.90;;;;;;4935361;28;20195;-63
2022/05/13 03:40:48;;;;;;;10.30;7.20;;;15.20;99.90;;;;;;4953312;28;20052;-63
2022/05/13 03:43:16;;;;;;;8.38;5.38;;;15.20;99.90;;;;;;4953130;28;20429;-62
2022/05/13 03:45:43;;;;;;;9.20;5.88;;;15.20;99.90;;;;;;4948543;28;20038;-64
2022/05/13 03:48:11;;;;;;;8.90;5.97;;;15.20;99.90;;;;;;4964596;28;20105;-63
2022/05/13 03:50:42;;;;;;;16.95;6.60;;;15.20;99.90;;;;;;4951082;28;20160;-64
2022/05/13 03:53:11;;;;;;;9.98;6.00;;;15.20;99.90;;;;;;4952069;28;20207;-64
2022/05/13 03:55:38;;;;;;;8.05;5.63;;;15.20;99.90;;;;;;4952984;28;20058;-63
2022/05/13 03:58:06;;;;;;;9.30;6.22;;;15.20;99.90;;;;;;4951391;28;20602;-63
2022/05/13 04:00:33;;;;;;;8.70;6.07;;;15.20;99.90;;;;;;4949816;28;20861;-63
2022/05/13 04:03:01;;;;;;;10.00;6.05;;;15.20;99.90;;;;;;4951309;28;20037;-63
2022/05/13 04:11:00;;;;;;;10.13;6.43;;;15.20;99.90;;;;;;4964156;28;20413;-63
2022/05/13 04:16:13;;;;;;;7.03;5.88;;;15.30;99.90;;;;;;4947221;28;20952;-63
2022/05/13 04:18:47;;;;;;;12.30;5.70;;;15.20;99.90;;;;;;4952402;28;20548;-64
2022/05/13 04:21:18;;;;;;;8.63;5.72;;;15.30;99.90;;;;;;4950399;28;20130;-64
2022/05/13 04:23:49;;;;;;;8.77;6.22;;;15.40;99.90;;;;;;4949805;28;20042;-63
2022/05/13 04:26:17;;;;;;;8.25;5.15;;;15.40;99.90;;;;;;4950833;28;20821;-64
2022/05/13 04:28:46;;;;;;;9.65;5.82;;;15.50;99.90;;;;;;4952554;28;20135;-64
2022/05/13 04:31:15;;;;;;;6.85;5.10;;;15.50;99.90;;;;;;4948126;28;20038;-63
2022/05/13 04:33:43;;;;;;;9.25;5.00;;;15.60;99.90;;;;;;4948892;28;20038;-64
2022/05/13 04:36:10;;;;;;;8.57;4.47;;;15.70;99.90;;;;;;4951434;28;20053;-64
2022/05/13 04:38:38;;;;;;;7.47;5.00;;;15.70;99.90;;;;;;4948077;28;20067;-64
2022/05/13 04:43:52;;;;;;;6.70;4.25;;;15.90;99.90;;;;;;4926987;28;20503;-58
2022/05/13 04:46:20;;;;;;;8.52;4.75;;;16.00;99.90;;;;;;4931005;28;20128;-57
2022/05/13 04:48:47;;;;;;;5.57;4.32;;;16.00;99.90;;;;;;4929293;28;20825;-57
2022/05/13 04:51:17;;;;;;;6.18;4.10;;;16.10;99.90;;;;;;4914889;28;20716;-55
2022/05/13 04:53:50;;;;;;;6.22;4.38;;;16.10;99.90;;;;;;4930339;28;20050;-58
2022/05/13 04:56:17;;;;;;;6.03;4.15;;;16.10;99.90;;;;;;4928924;28;20096;-58
2022/05/13 04:58:44;;;;;;;9.52;3.97;;;16.10;99.90;;;;;;4932154;28;20109;-57
2022/05/13 05:01:12;;;;;;;6.22;4.25;;;16.10;99.90;;;;;;4929188;28;20038;-55
2022/05/13 05:03:44;;;;;;;6.18;4.35;;;16.10;99.90;;;;;;4931520;28;20038;-56
2022/05/13 05:06:12;;;;;;;4.00;3.60;;;16.10;99.90;;;;;;4932585;28;20054;-55
2022/05/13 05:08:40;;;;;;;5.30;4.15;;;16.10;99.90;;;;;;4936910;28;20366;-54
2022/05/13 05:11:08;;;;;;;5.68;3.35;;;16.10;99.90;;;;;;4960483;28;20160;-54
2022/05/13 05:13:42;;;;;;;7.40;4.20;;;16.10;99.90;;;;;;4968530;28;20045;-55
2022/05/13 05:16:09;;;;;;;9.40;4.65;;;16.10;99.90;;;;;;4954924;28;20396;-55
2022/05/13 05:18:38;;;;;;;4.90;3.45;;;16.20;99.90;;;;;;4951357;28;20368;-55
2022/05/13 05:21:07;;;;;;;6.88;4.43;;;16.20;99.90;;;;;;4952502;28;20925;-55
2022/05/13 05:23:36;;;;;;;5.43;3.53;;;16.30;99.90;;;;;;4967178;28;20045;-56
2022/05/13 05:26:04;;;;;;;8.40;4.40;;;16.30;99.90;;;;;;4952410;28;20072;-54
2022/05/13 05:28:32;;;;;;;5.13;4.10;;;16.40;99.90;;;;;;4954363;28;20125;-56
2022/05/13 05:31:02;;;;;;;11.82;3.72;;;16.40;99.90;;;;;;4954604;28;20046;-55
2022/05/13 05:33:30;;;;;;;6.03;3.72;;;16.50;99.90;;;;;;4951576;28;20108;-58
2022/05/13 05:35:57;;;;;;;5.20;4.63;;;16.50;99.90;;;;;;4953562;28;20163;-55
2022/05/13 05:38:24;;;;;;;11.80;4.78;;;16.60;99.90;;;;;;4965213;28;20049;-56
2022/05/13 05:40:52;;;;;;;10.55;4.00;;;16.60;99.90;;;;;;4938368;28;20046;-55
2022/05/13 05:43:20;;;;;;;5.90;3.67;;;16.70;99.90;;;;;;4952619;28;20057;-54
2022/05/13 05:45:48;;;;;;;13.15;4.22;;;16.70;99.90;;;;;;4936749;28;20049;-56
2022/05/13 05:48:27;;;;;;;8.30;4.68;;;16.80;99.90;;;;;;4954770;28;20034;-55
2022/05/13 05:50:56;;;;;;;5.88;3.38;;;16.80;99.90;;;;;;4954406;28;20054;-54
2022/05/13 05:59:00;;;;;;;;;;;16.90;99.90;;;;;;4953274;28;20069;-55
2022/05/13 06:01:28;;;;;;;8.38;4.20;;;17.00;99.90;;;;;;4967651;28;19921;-58
2022/05/13 06:03:56;;;;;;;8.82;4.68;;;17.00;99.90;;;;;;4933314;28;20361;-55
2022/05/13 06:06:23;;;;;;;5.82;3.95;;;17.10;99.90;;;;;;4938793;28;20899;-56
2022/05/13 06:08:54;;;;;;;7.30;3.13;;;17.20;99.90;;;;;;4965266;28;20204;-55
2022/05/13 06:11:25;;;;;;;8.23;3.80;;;17.20;99.90;;;;;;4955123;28;20731;-56
2022/05/13 06:13:57;;;;;;;6.78;4.07;;;17.30;99.90;;;;;;4969647;28;20056;-55
2022/05/13 06:16:27;;;;;;;9.13;4.50;;;17.30;99.90;;;;;;4952383;28;20041;-61
2022/05/13 06:18:54;;;;;;;3.58;3.05;;;17.40;99.90;;;;;;4954617;28;20150;-62
2022/05/13 06:21:21;;;;;;;7.10;4.32;;;17.40;99.90;;;;;;4968903;28;20038;-58
2022/05/13 06:23:48;;;;;;;7.65;3.50;;;17.50;99.90;;;;;;4965571;28;20719;-58
2022/05/13 06:26:15;;;;;;;9.07;3.95;;;17.50;99.90;;;;;;4969616;28;20108;-59
2022/05/13 06:28:43;;;;;;;4.32;3.45;;;17.50;99.90;;;;;;4969935;28;20109;-58
2022/05/13 06:31:10;;;;;;;5.13;3.65;;;17.50;99.90;;;;;;4953315;28;20279;-63
2022/05/13 06:33:37;;;;;;;12.27;3.63;;;17.50;99.90;;;;;;4933110;28;20590;-63
2022/05/13 06:36:05;;;;;;;8.38;4.15;;;17.50;99.90;;;;;;4935244;28;20562;-64
2022/05/13 06:38:32;;;;;;;6.35;3.33;;;17.60;99.90;;;;;;4958153;28;20046;-66
2022/05/13 06:41:00;;;;;;;6.35;3.75;;;17.60;99.90;;;;;;4960037;28;20035;-58
2022/05/13 06:43:27;;;;;;;7.05;4.22;;;17.60;99.90;;;;;;4912272;28;20053;-61
2022/05/13 06:45:55;;;;;;;4.78;3.10;;;17.70;99.90;;;;;;4933665;28;20390;-58
2022/05/13 06:48:22;;;;;;;6.28;3.55;;;17.70;99.90;;;;;;4946488;28;20050;-60
2022/05/13 06:50:50;;;;;;;5.93;3.53;;;17.70;99.90;;;;;;4945799;28;20968;-59
2022/05/13 06:53:19;;;;;;;5.10;3.50;;;17.70;99.90;;;;;;4950401;28;20105;-60
2022/05/13 06:55:47;;;;;;;4.63;3.15;;;17.70;99.90;;;;;;4947389;28;20061;-58
2022/05/13 06:58:14;;;;;;;6.43;3.85;;;17.70;99.90;;;;;;4949356;28;20824;-58
2022/05/13 07:00:44;;;;;;;7.50;3.30;;;17.80;99.90;;;;;;4945636;28;20053;-58
2022/05/13 07:03:16;;;;;;;4.78;3.05;;;17.80;99.90;;;;;;4949734;28;20537;-63
2022/05/13 07:05:44;;;;;;;6.55;3.15;;;17.80;99.90;;;;;;4946303;28;20038;-58
2022/05/13 07:08:12;;;;;;;5.57;2.70;;;17.80;99.90;;;;;;4948600;28;20343;-58
2022/05/13 07:10:41;;;;;;;5.10;3.00;;;17.80;99.90;;;;;;4949088;28;20843;-58
2022/05/13 07:13:10;;;;;;;3.63;2.70;;;17.80;99.90;;;;;;4949272;28;20863;-58
2022/05/13 07:15:37;;;;;;;3.95;3.53;;;17.80;99.90;;;;;;4959258;28;20040;-57
2022/05/13 07:18:05;;;;;;;5.60;2.95;;;17.90;99.90;;;;;;4948617;28;20214;-57
2022/05/13 07:20:32;;;;;;;7.35;2.67;;;17.90;99.90;;;;;;4969743;28;20046;-58
2022/05/13 07:22:59;;;;;;;3.55;2.97;;;17.90;99.90;;;;;;4953321;28;20060;-61
2022/05/13 07:25:26;;;;;;;4.40;3.10;;;17.90;99.90;;;;;;4950731;28;20038;-62
2022/05/13 07:27:53;;;;;;;5.65;3.33;;;18.00;99.90;;;;;;4950924;28;20145;-61
2022/05/13 07:30:21;;;;;;;6.40;3.03;;;18.00;99.90;;;;;;4933268;28;20157;-60
2022/05/13 07:32:48;;;;;;;5.97;3.45;;;18.00;99.90;;;;;;4950936;28;20206;-61
2022/05/13 07:35:15;;;;;;;3.40;2.72;;;18.00;99.90;;;;;;4965683;28;20128;-61
2022/05/13 07:37:42;;;;;;;6.40;3.13;;;18.00;99.90;;;;;;4964395;28;20133;-60
2022/05/13 07:42:57;;;;;;;4.93;3.10;;;18.10;99.90;;;;;;4934139;28;20050;-61
2022/05/13 07:45:24;;;;;;;7.78;4.35;;;18.10;99.90;;;;;;4930600;28;20069;-61
2022/05/13 07:47:52;;;;;;;4.75;2.80;;;18.20;99.90;;;;;;4933606;28;20787;-60
2022/05/13 07:50:19;;;;;;;6.15;2.90;;;18.30;99.90;;;;;;4913759;28;20125;-61
2022/05/13 07:52:47;;;;;;;4.85;2.97;;;18.30;99.90;;;;;;4915234;28;20567;-62
2022/05/13 07:55:15;;;;;;;4.05;2.95;;;18.40;99.90;;;;;;4930649;28;20157;-57
2022/05/13 07:57:44;;;;;;;6.68;2.95;;;18.50;99.90;;;;;;4930405;28;20576;-56
2022/05/13 08:00:25;;;;;;;6.60;3.42;;;18.70;99.90;;;;;;4931020;28;20349;-63
2022/05/13 08:03:05;;;;;;;6.72;2.95;;;18.70;99.90;;;;;;4928333;28;20339;-59
2022/05/13 08:05:40;;;;;;;4.05;3.00;;;18.90;99.90;;;;;;4948099;28;20320;-57
2022/05/13 08:08:23;;;;;;;6.57;3.13;;;19.20;99.90;;;;;;4950079;28;20387;-57
2022/05/13 08:10:54;;;;;;;4.20;3.20;;;19.60;99.90;;;;;;4949772;28;20137;-57
2022/05/13 08:13:23;;;;;;;4.07;3.28;;;19.80;99.90;;;;;;4961803;28;20046;-57
2022/05/13 08:15:52;;;;;;;9.30;3.10;;;20.00;99.90;;;;;;4963625;28;20061;-56
2022/05/13 08:18:21;;;;;;;4.18;2.60;;;20.10;99.90;;;;;;4933831;28;20413;-57
2022/05/13 08:20:49;;;;;;;8.98;3.15;;;20.10;99.90;;;;;;4931814;28;20495;-55
2022/05/13 08:23:17;;;;;;;6.60;3.10;;;20.20;99.90;;;;;;4951526;28;20037;-57
2022/05/13 08:25:44;;;;;;;5.82;2.97;;;20.20;99.90;;;;;;4966673;28;20149;-64
2022/05/13 08:28:13;;;;;;;3.58;3.00;;;20.40;99.90;;;;;;4952725;28;20133;-60
2022/05/13 08:30:40;;;;;;;8.32;2.80;;;20.50;99.90;;;;;;4950947;28;20060;-61
2022/05/13 08:33:11;;;;;;;4.10;3.08;;;20.60;99.90;;;;;;4951803;28;20046;-63
2022/05/13 08:35:46;;;;;;;5.18;2.80;;;20.60;99.90;;;;;;4967279;28;20276;-59
2022/05/13 08:38:16;;;;;;;6.63;2.58;;;20.50;99.90;;;;;;4933649;28;20046;-62
2022/05/13 08:40:50;;;;;;;4.82;2.88;;;20.50;99.90;;;;;;4954608;28;20038;-63
2022/05/13 08:43:39;;;;;;;7.57;3.58;;;20.40;99.90;;;;;;4966469;28;20164;-62
2022/05/13 08:46:31;;;;;;;4.93;3.28;;;20.30;99.90;;;;;;4952863;28;20038;-61
2022/05/13 08:49:16;;;;;;;5.55;3.35;;;20.20;99.90;;;;;;4948027;28;20499;-61
2022/05/13 08:51:46;;;;;;;5.10;3.45;;;20.10;99.90;;;;;;4963796;28;20716;-62
2022/05/13 08:54:19;;;;;;;7.05;3.60;;;20.00;99.90;;;;;;4966268;28;20537;-64
2022/05/13 08:56:52;;;;;;;8.18;3.45;;;19.80;99.90;;;;;;4951041;28;20042;-62
2022/05/13 08:59:27;;;;;;;6.07;3.33;;;19.70;99.90;;;;;;4965629;28;20551;-61
2022/05/13 09:02:08;;;;;;;6.65;3.70;;;19.60;99.90;;;;;;4963994;28;20038;-62
2022/05/13 09:04:43;;;;;;;3.40;2.80;;;19.50;99.90;;;;;;4947509;28;20315;-62
2022/05/13 09:07:17;;;;;;;7.18;3.85;;;19.40;99.90;;;;;;4947835;28;20056;-63
2022/05/13 09:09:50;;;;;;;7.28;3.58;;;19.40;99.90;;;;;;4951340;28;20041;-62
2022/05/13 09:12:26;;;;;;;4.05;3.08;;;19.40;99.90;;;;;;4950246;28;20049;-63
2022/05/13 09:15:01;;;;;;;6.78;4.18;;;19.30;99.90;;;;;;4961747;28;20042;-62
2022/05/13 09:17:37;;;;;;;6.10;3.50;;;19.30;99.90;;;;;;4931887;28;20057;-62
2022/05/13 09:20:14;;;;;;;5.45;3.92;;;19.40;99.90;;;;;;4967464;28;20125;-63
2022/05/13 09:22:51;;;;;;;;;;;19.50;99.90;;;;;;4964770;28;20050;-62
2022/05/13 09:25:27;;;;;;;7.57;4.15;;;19.60;99.90;;;;;;4954964;28;19928;-62
2022/05/13 09:28:09;;;;;;;;;;;19.70;99.90;;;;;;4951841;28;20887;-62
2022/05/13 09:30:46;;;;;;;6.53;4.32;;;19.70;99.90;;;;;;4949089;28;20614;-61
2022/05/13 09:33:21;;;;;;;8.40;4.38;;;19.80;99.90;;;;;;4947188;28;20361;-62
2022/05/13 09:35:57;;;;;;;6.70;3.95;;;19.90;99.90;;;;;;4951420;28;20045;-61
2022/05/13 09:38:31;;;;;;;6.18;3.90;;;20.00;99.90;;;;;;4963962;28;20108;-62
2022/05/13 09:41:08;;;;;;;6.13;4.30;;;20.00;99.90;;;;;;4951144;28;20042;-61
2022/05/13 09:43:36;;;;;;;5.07;3.63;;;20.10;99.90;;;;;;4934846;28;20704;-61
2022/05/13 09:46:06;;;;;;;9.25;4.10;;;20.10;99.90;;;;;;4945476;28;20041;-62
2022/05/13 09:48:36;;;;;;;7.53;5.45;;;20.10;99.90;;;;;;4950551;28;20598;-62
2022/05/13 09:51:25;;;;;;;8.02;4.70;;;20.10;99.90;;;;;;4950996;28;20583;-62
2022/05/13 09:54:06;;;;;;;9.50;5.20;;;20.10;99.90;;;;;;4952663;28;20998;-61
2022/05/13 09:56:39;;;;;;;7.13;4.45;;;20.10;99.90;;;;;;4935540;28;20235;-63
2022/05/13 09:59:15;;;;;;;6.28;4.05;;;20.10;99.90;;;;;;4953319;28;20045;-68
2022/05/13 10:01:42;;;;;;;8.93;4.70;;;20.10;99.90;;;;;;4954035;28;20279;-59
2022/05/13 10:04:23;;;;;;;6.28;4.53;;;20.20;99.90;;;;;;4952561;28;20747;-60
2022/05/13 10:07:04;;;;;;;8.80;4.20;;;20.40;99.90;;;;;;4967588;28;20807;-60
2022/05/13 10:15:34;;;;;;;9.52;5.15;;;20.70;99.90;;;;;;4967935;28;20805;-60
2022/05/13 10:18:26;;;;;;;8.60;5.28;;;20.80;99.90;;;;;;4947897;28;20421;-60
2022/05/13 10:21:04;;;;;;;10.80;6.15;;;21.00;99.90;;;;;;4951206;28;20046;-62
2022/05/13 10:23:45;;;;;;;10.70;5.15;;;21.10;99.90;;;;;;4951521;28;20559;-60
2022/05/13 10:26:17;;;;;;;5.78;4.68;;;21.20;99.90;;;;;;4952814;28;20207;-60
2022/05/13 10:29:04;;;;;;;6.28;5.13;;;21.10;99.90;;;;;;4954734;28;20694;-60
2022/05/13 10:31:34;;;;;;;;;;;21.10;99.90;;;;;;4950130;28;20327;-60
2022/05/13 10:34:22;;;;;;;9.20;5.50;;;21.20;99.90;;;;;;4950099;28;19921;-60
2022/05/13 10:36:59;;;;;;;6.88;5.40;;;21.20;99.90;;;;;;4949470;28;20864;-60
2022/05/13 10:39:46;;;;;;;;;;;21.10;99.90;;;;;;4959679;28;20053;-60
2022/05/13 10:42:20;;;;;;;8.50;5.03;;;21.10;99.90;;;;;;4915239;28;20476;-61
2022/05/13 10:44:52;;;;;;;6.97;4.80;;;20.90;99.90;;;;;;4917775;28;20051;-60
2022/05/13 10:47:23;;;;;;;15.75;5.97;;;20.80;99.90;;;;;;4931914;28;20148;-55
2022/05/13 10:49:50;;;;;;;9.02;5.95;;;20.60;99.90;;;;;;4914593;28;20145;-57
2022/05/13 10:52:38;;;;;;;6.10;4.55;;;20.50;99.90;;;;;;4953013;28;20042;-56
2022/05/13 10:55:23;;;;;;;5.18;4.57;;;20.40;99.90;;;;;;4951694;28;20050;-56
2022/05/13 10:58:06;;;;;;;11.00;5.22;;;20.40;99.90;;;;;;4952326;28;20057;-55
2022/05/13 11:00:53;;;;;;;8.98;5.75;;;20.40;99.90;;;;;;4948751;28;20614;-55
2022/05/13 11:03:51;;;;;;;10.52;6.70;;;20.50;99.90;;;;;;4950110;28;20153;-56
2022/05/13 11:06:46;;;;;;;8.88;5.70;;;20.60;99.90;;;;;;4951917;28;20046;-56
2022/05/13 11:09:37;;;;;;;10.02;5.85;;;20.50;99.90;;;;;;4950969;28;20065;-55
2022/05/13 11:12:42;;;;;;;7.85;6.13;;;20.40;99.90;;;;;;4951444;28;20389;-55
2022/05/13 11:15:32;;;;;;;8.13;6.63;;;20.30;99.90;;;;;;4950321;28;20808;-58
2022/05/13 11:18:19;;;;;;;12.35;6.00;;;20.30;99.90;;;;;;4960745;28;20042;-58
2022/05/13 11:21:26;;;;;;;17.10;7.22;;;20.20;99.90;;;;;;4933149;28;20046;-63
2022/05/13 11:28:00;;;;;;;17.13;6.90;;;19.90;99.90;;;;;;4931990;28;20043;-64
2022/05/13 11:30:33;;;;;;;11.60;6.32;;;19.90;99.90;;;;;;4930223;28;20050;-63
2022/05/13 11:33:40;;;;;;;11.27;7.18;;;19.80;99.90;;;;;;4939534;28;20154;-64
2022/05/13 11:36:23;;;;;;;11.32;7.25;;;19.80;99.90;;;;;;4968376;28;20210;-64
2022/05/13 11:39:34;;;;;;;13.32;7.82;;;19.70;99.90;;;;;;4958113;28;20034;-58
2022/05/13 11:42:24;;;;;;;12.88;6.43;;;19.60;99.90;;;;;;4928905;28;20314;-58
2022/05/13 11:45:46;;;;;;;9.63;6.88;;;19.40;99.90;;;;;;4930757;28;20081;-57
2022/05/13 11:48:20;;;;;;;10.65;7.55;;;19.30;99.90;;;;;;4909667;28;20855;-57
2022/05/13 11:50:48;;;;;;;11.95;7.30;;;19.20;99.90;;;;;;4922709;28;20157;-58
2022/05/13 11:53:53;;;;;;;11.02;7.72;;;19.10;99.90;;;;;;4945260;28;20432;-57
2022/05/13 11:56:30;;;;;;;10.57;7.68;;;18.90;99.90;;;;;;4944559;28;20047;-57
2022/05/13 11:59:28;;;;;;;15.77;8.07;;;18.80;99.90;;;;;;4944673;28;20759;-57
2022/05/13 12:02:16;;;;;;;9.15;6.38;;;18.70;99.90;;;;;;4946205;28;20361;-58
2022/05/13 12:05:05;;;;;;;25.40;11.25;;;18.60;99.90;;;;;;4949076;28;20042;-57
2022/05/13 12:07:39;;;;;;;11.05;8.55;;;18.50;99.90;;;;;;4932651;28;20042;-57
2022/05/13 12:10:10;;;;;;;13.30;8.68;;;18.40;99.90;;;;;;4945261;28;20046;-57
2022/05/13 12:12:37;;;;;;;14.85;9.00;;;18.40;99.90;;;;;;4947822;28;20062;-56
2022/05/13 12:15:07;;;;;;;11.18;8.20;;;18.30;99.90;;;;;;4944825;28;20820;-57
2022/05/13 12:17:50;;;;;;;14.95;7.82;;;18.40;99.90;;;;;;4962899;28;20387;-57
2022/05/13 12:21:02;;;;;;;12.35;8.48;;;18.40;99.90;;;;;;4950593;28;20618;-56
2022/05/13 12:23:47;;;;;;;12.23;8.93;;;18.50;99.90;;;;;;4948650;28;20452;-60
2022/05/13 12:26:14;;;;;;;12.43;9.50;;;18.50;99.90;;;;;;4962547;28;20397;-58
2022/05/13 12:28:56;;;;;;;11.38;8.40;;;18.50;99.90;;;;;;4947278;28;20334;-59
2022/05/13 12:31:52;;;;;;;11.45;7.93;;;18.50;99.90;;;;;;4965674;28;20050;-57
2022/05/13 12:37:39;;;;;;;10.88;7.55;;;18.40;99.90;;;;;;4963499;28;20042;-58
2022/05/13 12:40:18;;;;;;;16.17;7.35;;;18.40;99.90;;;;;;4955266;28;20236;-58
2022/05/13 12:42:51;;;;;;;14.65;8.13;;;18.40;99.90;;;;;;4947791;28;20042;-57
2022/05/13 12:45:21;;;;;;;10.90;7.60;;;18.40;99.90;;;;;;4963518;28;20109;-59
2022/05/13 12:48:06;;;;;;;11.43;7.45;;;18.40;99.90;;;;;;4949851;28;20038;-57
2022/05/13 12:51:17;;;;;;;17.38;9.30;;;18.40;99.90;;;;;;4968106;28;20042;-59
2022/05/13 12:53:54;;;;;;;10.80;7.90;;;18.40;99.90;;;;;;4983144;28;20053;-54
2022/05/13 12:56:41;;;;;;;12.13;7.93;;;18.40;99.90;;;;;;4947254;28;20056;-57
2022/05/13 12:59:18;;;;;;;9.48;6.70;;;18.40;99.90;;;;;;4950121;28;20347;-57
2022/05/13 13:01:49;;;;;;;10.48;8.00;;;18.40;99.90;;;;;;4971149;28;20187;-57
2022/05/13 13:04:23;;;;;;;15.00;8.75;;;18.40;99.90;;;;;;4969481;28;20121;-57
2022/05/13 13:06:51;;;;;;;11.52;8.95;;;18.40;99.90;;;;;;4976912;28;20042;-54
2022/05/13 13:09:39;;;;;;;9.13;8.10;;;18.40;99.90;;;;;;5000051;28;20091;-55
2022/05/13 13:12:25;;;;;;;18.45;9.75;;;18.40;99.90;;;;;;4997975;28;20057;-54
2022/05/13 13:15:31;;;;;;;20.08;10.35;;;18.40;99.90;;;;;;4987997;28;20060;-58
2022/05/13 13:18:01;;;;;;;9.93;8.52;;;18.30;99.90;;;;;;4974222;28;20046;-54
2022/05/13 13:20:29;;;;;;;13.13;7.43;;;18.30;99.90;;;;;;4976328;28;20038;-57
2022/05/13 13:23:04;;;;;;;12.18;9.32;;;18.30;99.90;;;;;;4975659;28;20061;-55
2022/05/13 13:25:38;;;;;;;13.02;8.20;;;18.30;99.90;;;;;;4977957;28;20050;-57
2022/05/13 13:28:11;;;;;;;8.65;6.68;;;18.30;99.90;;;;;;4993798;28;20561;-55
2022/05/13 13:30:42;;;;;;;13.07;7.80;;;18.40;99.90;;;;;;4991825;28;20042;-55
2022/05/13 13:33:10;;;;;;;11.13;8.93;;;18.40;99.90;;;;;;4999087;28;20034;-62
2022/05/13 13:35:40;;;;;;;11.73;7.57;;;18.40;99.90;;;;;;4999289;28;20057;-62
2022/05/13 13:38:09;;;;;;;14.32;8.63;;;18.50;99.90;;;;;;4990774;28;20055;-64
2022/05/13 13:40:46;;;;;;;15.13;9.55;;;18.60;99.90;;;;;;4991994;28;20038;-59
2022/05/13 13:43:16;;;;;;;11.17;8.20;;;18.60;99.90;;;;;;4978581;28;20042;-60
2022/05/13 13:46:00;;;;;;;10.18;7.95;;;18.70;99.90;;;;;;4978197;28;20465;-61
2022/05/13 13:48:44;;;;;;;16.05;8.30;;;18.70;99.90;;;;;;4978973;28;20062;-60
2022/05/13 13:51:19;;;;;;;16.08;9.13;;;18.80;99.90;;;;;;4979676;28;20588;-61
2022/05/13 13:53:52;;;;;;;13.70;9.95;;;18.90;99.90;;;;;;4979758;28;20046;-61